createdAt,value
2023-04-10T00:01:49.430Z,15.40
2023-04-10T00:04:18.728Z,15.40
2023-04-10T00:06:49.304Z,15.30
2023-04-10T00:09:17.687Z,15.30
2023-04-10T00:11:47.504Z,15.30
2023-04-10T00:14:15.834Z,15.30
2023-04-10T00:16:44.150Z,15.30
2023-04-10T00:19:12.842Z,15.30
2023-04-10T00:21:41.286Z,15.30
2023-04-10T00:24:09.657Z,15.30
2023-04-10T00:26:38.295Z,15.30
2023-04-10T00:29:08.341Z,15.30
2023-04-10T00:31:36.769Z,15.30
2023-04-10T00:34:05.072Z,15.20
2023-04-10T00:36:33.453Z,15.20
2023-04-10T00:39:01.879Z,15.30
2023-04-10T00:41:30.818Z,15.20
2023-04-10T00:44:00.212Z,15.20
2023-04-10T00:46:30.566Z,15.20
2023-04-10T00:48:59.558Z,15.20
2023-04-10T00:51:28.005Z,15.20
2023-04-10T00:53:56.624Z,15.20
2023-04-10T00:56:26.188Z,15.20
2023-04-10T00:58:54.570Z,15.20
2023-04-10T01:01:23.111Z,15.20
2023-04-10T01:03:54.324Z,15.20
2023-04-10T01:06:32.204Z,15.20
2023-04-10T01:09:09.516Z,15.20
2023-04-10T01:11:47.748Z,15.20
2023-04-10T01:14:28.776Z,15.20
2023-04-10T01:17:07.133Z,15.20
2023-04-10T01:20:01.030Z,15.20
2023-04-10T01:22:37.447Z,15.20
2023-04-10T01:25:31.413Z,15.30
2023-04-10T01:28:10.847Z,15.30
2023-04-10T01:30:41.929Z,15.30
2023-04-10T01:33:13.862Z,15.30
2023-04-10T01:35:45.247Z,15.20
2023-04-10T01:38:14.898Z,15.30
2023-04-10T01:40:50.239Z,15.30
2023-04-10T01:43:20.888Z,15.30
2023-04-10T01:45:52.785Z,15.30
2023-04-10T01:48:21.854Z,15.30
2023-04-10T01:50:51.003Z,15.30
2023-04-10T01:53:19.762Z,15.30
2023-04-10T01:55:48.678Z,15.30
2023-04-10T01:58:17.613Z,15.30
2023-04-10T02:00:45.982Z,15.30
2023-04-10T02:03:15.874Z,15.30
2023-04-10T02:05:56.346Z,15.30
2023-04-10T02:08:32.573Z,15.30
2023-04-10T02:11:06.189Z,15.30
2023-04-10T02:13:36.875Z,15.30
2023-04-10T02:16:08.376Z,15.30
2023-04-10T02:18:39.358Z,15.30
2023-04-10T02:21:09.577Z,15.40
2023-04-10T02:23:38.411Z,15.30
2023-04-10T02:26:10.494Z,15.30
2023-04-10T02:28:40.296Z,15.40
2023-04-10T02:31:09.092Z,15.30
2023-04-10T02:33:38.838Z,15.40
2023-04-10T02:36:08.078Z,15.40
2023-04-10T02:38:36.573Z,15.30
2023-04-10T02:41:05.027Z,15.30
2023-04-10T02:43:33.443Z,15.30
2023-04-10T02:46:02.009Z,15.30
2023-04-10T02:48:30.389Z,15.30
2023-04-10T02:51:00.595Z,15.30
2023-04-10T02:53:28.983Z,15.30
2023-04-10T02:55:57.337Z,15.30
2023-04-10T02:58:25.722Z,15.30
2023-04-10T03:00:54.128Z,15.30
2023-04-10T03:03:22.767Z,15.30
2023-04-10T03:05:51.327Z,15.30
2023-04-10T03:08:21.244Z,15.30
2023-04-10T03:10:49.646Z,15.30
2023-04-10T03:13:18.373Z,15.30
2023-04-10T03:15:47.052Z,15.30
2023-04-10T03:18:15.689Z,15.20
2023-04-10T03:20:45.122Z,15.30
2023-04-10T03:23:13.797Z,15.30
2023-04-10T03:25:43.512Z,15.20
2023-04-10T03:28:11.951Z,15.20
2023-04-10T03:30:40.279Z,15.20
2023-04-10T03:33:08.599Z,15.20
2023-04-10T03:35:37.030Z,15.20
2023-04-10T03:38:05.388Z,15.10
2023-04-10T03:40:34.572Z,15.10
2023-04-10T03:43:04.432Z,15.10
2023-04-10T03:45:32.812Z,15.00
2023-04-10T03:48:01.261Z,15.00
2023-04-10T03:50:29.674Z,14.90
2023-04-10T03:52:58.047Z,14.90
2023-04-10T03:55:26.385Z,14.90
2023-04-10T03:57:54.753Z,14.80
2023-04-10T04:00:26.717Z,14.80
2023-04-10T04:02:55.490Z,14.80
2023-04-10T04:05:24.333Z,14.80
2023-04-10T04:07:52.686Z,14.70
2023-04-10T04:10:21.005Z,14.70
2023-04-10T04:12:49.554Z,14.70
2023-04-10T04:15:18.246Z,14.70
2023-04-10T04:17:48.357Z,14.70
2023-04-10T04:20:16.991Z,14.60
2023-04-10T04:22:46.419Z,14.60
2023-04-10T04:25:15.012Z,14.60
2023-04-10T04:27:43.392Z,14.60
2023-04-10T04:30:13.057Z,14.60
2023-04-10T04:32:41.468Z,14.60
2023-04-10T04:35:12.131Z,14.60
2023-04-10T04:37:40.927Z,14.60
2023-04-10T04:40:11.500Z,14.60
2023-04-10T04:42:39.845Z,14.60
2023-04-10T04:45:09.794Z,14.60
2023-04-10T04:47:38.174Z,14.60
2023-04-10T04:50:08.150Z,14.50
2023-04-10T04:52:37.917Z,14.50
2023-04-10T04:55:07.368Z,14.50
2023-04-10T04:57:35.792Z,14.50
2023-04-10T05:00:04.256Z,14.40
2023-04-10T05:02:32.702Z,14.40
2023-04-10T05:05:01.379Z,14.40
2023-04-10T05:07:29.709Z,14.40
2023-04-10T05:09:59.446Z,14.40
2023-04-10T05:12:27.869Z,14.40
2023-04-10T05:14:56.272Z,14.40
2023-04-10T05:17:24.698Z,14.30
2023-04-10T05:19:52.967Z,14.40
2023-04-10T05:22:21.356Z,14.40
2023-04-10T05:24:49.790Z,14.40
2023-04-10T05:27:20.481Z,14.40
2023-04-10T05:29:48.758Z,14.40
2023-04-10T05:32:17.191Z,14.40
2023-04-10T05:34:45.633Z,14.40
2023-04-10T05:37:14.385Z,14.40
2023-04-10T05:39:42.921Z,14.40
2023-04-10T05:42:11.707Z,14.40
2023-04-10T05:44:41.656Z,14.40
2023-04-10T05:47:10.067Z,14.40
2023-04-10T05:49:38.457Z,14.40
2023-04-10T05:52:06.854Z,14.40
2023-04-10T05:54:35.271Z,14.40
2023-04-10T05:57:03.664Z,14.50
2023-04-10T05:59:32.028Z,14.40
2023-04-10T06:02:01.906Z,14.40
2023-04-10T06:04:30.616Z,14.50
2023-04-10T06:06:59.885Z,14.50
2023-04-10T06:09:28.342Z,14.50
2023-04-10T06:11:56.744Z,14.50
2023-04-10T06:14:25.227Z,14.50
2023-04-10T06:16:53.929Z,14.50
2023-04-10T06:19:23.723Z,14.50
2023-04-10T06:21:54.385Z,14.50
2023-04-10T06:24:23.162Z,14.50
2023-04-10T06:26:51.495Z,14.60
2023-04-10T06:29:20.382Z,14.60
2023-04-10T06:31:49.037Z,14.60
2023-04-10T06:34:17.382Z,14.60
2023-04-10T06:36:47.195Z,14.60
2023-04-10T06:39:16.363Z,14.70
2023-04-10T06:41:44.979Z,14.70
2023-04-10T06:44:13.285Z,14.70
2023-04-10T06:46:41.698Z,14.70
2023-04-10T06:49:10.096Z,14.70
2023-04-10T06:51:38.419Z,14.80
2023-04-10T06:54:08.209Z,14.80
2023-04-10T06:56:36.706Z,14.80
2023-04-10T06:59:05.039Z,14.80
2023-04-10T07:01:33.539Z,14.80
2023-04-10T07:04:01.976Z,14.80
2023-04-10T07:06:31.437Z,14.80
2023-04-10T07:08:59.983Z,14.80
2023-04-10T07:11:29.796Z,14.80
2023-04-10T07:13:58.891Z,14.90
2023-04-10T07:16:27.726Z,14.90
2023-04-10T07:18:56.992Z,14.90
2023-04-10T07:21:27.255Z,14.90
2023-04-10T07:23:55.732Z,14.90
2023-04-10T07:26:24.156Z,14.90
2023-04-10T07:28:54.179Z,14.90
2023-04-10T07:31:22.870Z,14.90
2023-04-10T07:33:51.989Z,14.90
2023-04-10T07:36:20.334Z,15.00
2023-04-10T07:38:48.714Z,15.00
2023-04-10T07:41:17.182Z,15.00
2023-04-10T07:43:46.220Z,15.00
2023-04-10T07:46:16.349Z,15.00
2023-04-10T07:48:47.285Z,15.00
2023-04-10T07:51:15.791Z,15.00
2023-04-10T07:53:44.153Z,15.00
2023-04-10T07:56:18.175Z,15.00
2023-04-10T07:58:46.816Z,15.00
2023-04-10T08:01:17.177Z,15.00
2023-04-10T08:03:47.731Z,15.00
2023-04-10T08:06:16.592Z,15.10
2023-04-10T08:08:44.978Z,15.10
2023-04-10T08:11:25.456Z,15.10
2023-04-10T08:13:54.599Z,15.10
2023-04-10T08:16:26.603Z,15.10
2023-04-10T08:18:56.863Z,15.10
2023-04-10T08:21:26.166Z,15.10
2023-04-10T08:23:55.180Z,15.10
2023-04-10T08:26:23.692Z,15.10
2023-04-10T08:28:53.851Z,15.10
2023-04-10T08:31:23.666Z,15.10
2023-04-10T08:33:53.804Z,15.10
2023-04-10T08:36:22.738Z,15.20
2023-04-10T08:38:51.143Z,15.20
2023-04-10T08:41:20.948Z,15.20
2023-04-10T08:43:50.085Z,15.20
2023-04-10T08:46:18.699Z,15.30
2023-04-10T08:48:49.571Z,15.30
2023-04-10T08:51:26.382Z,15.30
2023-04-10T08:54:00.299Z,15.30
2023-04-10T08:56:28.981Z,15.30
2023-04-10T08:58:57.601Z,15.30
2023-04-10T09:01:26.911Z,15.30
2023-04-10T09:03:55.714Z,15.30
2023-04-10T09:06:26.029Z,15.30
2023-04-10T09:08:54.416Z,15.40
2023-04-10T09:11:22.858Z,15.40
2023-04-10T09:13:51.145Z,15.40
2023-04-10T09:16:19.703Z,15.40
2023-04-10T09:18:49.913Z,15.50
2023-04-10T09:21:20.119Z,15.50
2023-04-10T09:23:50.888Z,15.50
2023-04-10T09:26:27.108Z,15.50
2023-04-10T09:29:00.504Z,15.50
2023-04-10T09:31:33.571Z,15.50
2023-04-10T09:34:14.240Z,15.50
2023-04-10T09:36:43.144Z,15.60
2023-04-10T09:39:13.711Z,15.70
2023-04-10T09:41:52.562Z,15.70
2023-04-10T09:44:31.068Z,15.70
2023-04-10T09:46:59.840Z,15.70
2023-04-10T09:49:28.375Z,15.70
2023-04-10T09:51:56.772Z,15.70
2023-04-10T09:54:38.956Z,15.80
2023-04-10T09:57:08.399Z,15.80
2023-04-10T09:59:41.804Z,15.80
2023-04-10T10:02:11.606Z,15.80
2023-04-10T10:04:43.028Z,15.90
2023-04-10T10:07:11.536Z,15.90
2023-04-10T10:09:42.275Z,15.90
2023-04-10T10:12:12.734Z,16.00
2023-04-10T10:14:48.885Z,16.00
2023-04-10T10:17:21.242Z,16.10
2023-04-10T10:19:58.605Z,16.10
2023-04-10T10:22:28.849Z,16.10
2023-04-10T10:25:00.587Z,16.20
2023-04-10T10:27:32.110Z,16.20
2023-04-10T10:30:08.426Z,16.20
2023-04-10T10:32:47.017Z,16.30
2023-04-10T10:35:15.573Z,16.30
2023-04-10T10:37:46.122Z,16.30
2023-04-10T10:40:19.172Z,16.30
2023-04-10T10:42:54.248Z,16.40
2023-04-10T10:45:28.045Z,16.40
2023-04-10T10:47:56.998Z,16.50
2023-04-10T10:50:25.436Z,16.50
2023-04-10T10:52:57.335Z,16.50
2023-04-10T10:55:36.860Z,16.60
2023-04-10T10:58:08.989Z,16.60
2023-04-10T11:01:08.437Z,16.70
2023-04-10T11:03:38.782Z,16.70
2023-04-10T11:06:09.849Z,16.80
2023-04-10T11:08:45.845Z,16.90
2023-04-10T11:11:17.981Z,17.00
2023-04-10T11:14:18.473Z,17.10
2023-04-10T11:16:50.187Z,17.30
2023-04-10T11:19:22.685Z,17.50
2023-04-10T11:22:07.698Z,17.80
2023-04-10T11:24:54.290Z,18.00
2023-04-10T11:27:49.575Z,18.30
2023-04-10T11:30:28.599Z,18.60
2023-04-10T11:32:57.588Z,18.90
2023-04-10T11:35:28.303Z,19.20
2023-04-10T11:38:27.115Z,19.40
2023-04-10T11:41:01.768Z,19.70
2023-04-10T11:43:32.839Z,20.10
2023-04-10T11:46:03.160Z,20.40
2023-04-10T11:48:32.068Z,20.60
2023-04-10T11:51:02.224Z,20.90
2023-04-10T11:53:31.068Z,21.20
2023-04-10T11:55:59.677Z,21.50
2023-04-10T11:58:30.505Z,21.90
2023-04-10T12:01:02.188Z,22.20
2023-04-10T12:03:41.464Z,22.50
2023-04-10T12:06:12.781Z,22.90
2023-04-10T12:08:42.688Z,23.20
2023-04-10T12:11:13.038Z,23.50
2023-04-10T12:13:41.846Z,23.80
2023-04-10T12:16:12.706Z,24.10
2023-04-10T12:18:42.009Z,24.40
2023-04-10T12:21:10.742Z,24.70
2023-04-10T12:23:40.329Z,24.90
2023-04-10T12:26:11.925Z,25.20
2023-04-10T12:28:43.165Z,25.50
2023-04-10T12:31:13.130Z,25.70
2023-04-10T12:33:41.538Z,25.90
2023-04-10T12:36:22.522Z,26.10
2023-04-10T12:38:53.063Z,26.40
2023-04-10T12:41:27.962Z,26.50
2023-04-10T12:44:08.943Z,26.90
2023-04-10T12:46:42.451Z,27.20
2023-04-10T12:49:13.607Z,27.40
2023-04-10T12:51:46.799Z,27.60
2023-04-10T12:54:29.949Z,27.90
2023-04-10T12:56:59.162Z,28.20
2023-04-10T12:59:28.129Z,28.40
2023-04-10T13:01:58.560Z,28.60
2023-04-10T13:04:28.940Z,28.90
2023-04-10T13:06:57.342Z,29.00
2023-04-10T13:09:25.861Z,29.20
2023-04-10T13:11:54.224Z,29.40
2023-04-10T13:14:22.798Z,29.60
2023-04-10T13:16:51.098Z,29.90
2023-04-10T13:19:20.859Z,30.10
2023-04-10T13:21:50.796Z,30.30
2023-04-10T13:24:19.181Z,30.50
2023-04-10T13:26:47.552Z,30.70
2023-04-10T13:29:15.924Z,30.80
2023-04-10T13:31:44.287Z,31.00
2023-04-10T13:34:12.717Z,31.10
2023-04-10T13:36:42.652Z,31.20
2023-04-10T13:39:11.116Z,31.40
2023-04-10T13:41:39.538Z,31.60
2023-04-10T13:44:07.942Z,31.70
2023-04-10T13:46:36.360Z,31.90
2023-04-10T13:49:04.735Z,32.00
2023-04-10T13:51:33.158Z,32.10
2023-04-10T13:54:04.826Z,32.30
2023-04-10T13:56:33.178Z,32.50
2023-04-10T13:59:02.133Z,32.60
2023-04-10T14:01:30.886Z,32.90
2023-04-10T14:03:59.545Z,32.90
2023-04-10T14:06:28.551Z,33.10
2023-04-10T14:08:57.115Z,33.20
2023-04-10T14:11:27.639Z,33.30
2023-04-10T14:13:56.211Z,33.50
2023-04-10T14:16:24.875Z,33.60
2023-04-10T14:18:53.805Z,33.60
2023-04-10T14:21:22.725Z,33.80
2023-04-10T14:23:51.283Z,33.80
2023-04-10T14:26:19.714Z,33.90
2023-04-10T14:28:49.644Z,33.90
2023-04-10T14:31:17.953Z,34.10
2023-04-10T14:33:46.675Z,34.10
2023-04-10T14:36:15.265Z,34.20
2023-04-10T14:38:43.694Z,34.20
2023-04-10T14:41:12.583Z,34.20
2023-04-10T14:43:41.453Z,34.10
2023-04-10T14:46:14.993Z,34.10
2023-04-10T14:48:44.500Z,34.10
2023-04-10T14:51:13.330Z,34.10
2023-04-10T14:53:41.751Z,34.10
2023-04-10T14:56:14.139Z,34.00
2023-04-10T14:58:42.665Z,34.00
2023-04-10T15:01:13.575Z,33.80
2023-04-10T15:03:42.201Z,33.70
2023-04-10T15:06:10.740Z,33.50
2023-04-10T15:08:39.120Z,33.30
2023-04-10T15:11:07.828Z,33.20
2023-04-10T15:13:37.823Z,32.90
2023-04-10T15:16:08.141Z,32.60
2023-04-10T15:18:38.024Z,32.20
2023-04-10T15:21:07.337Z,31.80
2023-04-10T15:23:35.866Z,31.50
2023-04-10T15:26:04.337Z,31.20
2023-04-10T15:28:32.874Z,30.90
2023-04-10T15:31:01.382Z,30.60
2023-04-10T15:33:29.827Z,30.30
2023-04-10T15:35:59.755Z,30.00
2023-04-10T15:38:28.927Z,29.70
2023-04-10T15:40:57.468Z,29.50
2023-04-10T15:43:26.008Z,29.20
2023-04-10T15:45:54.406Z,29.00
2023-04-10T15:48:24.774Z,28.80
2023-04-10T15:50:53.166Z,28.60
2023-04-10T15:53:23.045Z,28.40
2023-04-10T15:55:51.466Z,28.20
2023-04-10T15:58:20.266Z,28.00
2023-04-10T16:00:48.777Z,27.80
2023-04-10T16:03:17.689Z,27.60
2023-04-10T16:05:46.421Z,27.50
2023-04-10T16:08:14.965Z,27.30
2023-04-10T16:10:44.921Z,27.10
2023-04-10T16:13:13.567Z,27.00
2023-04-10T16:15:41.932Z,26.80
2023-04-10T16:18:10.531Z,26.70
2023-04-10T16:20:38.991Z,26.50
2023-04-10T16:23:07.678Z,26.40
2023-04-10T16:25:36.132Z,26.20
2023-04-10T16:28:08.107Z,26.20
2023-04-10T16:30:37.290Z,26.00
2023-04-10T16:33:05.757Z,25.90
2023-04-10T16:35:35.964Z,25.80
2023-04-10T16:38:05.434Z,25.60
2023-04-10T16:40:35.018Z,25.50
2023-04-10T16:43:04.263Z,25.40
2023-04-10T16:45:34.858Z,25.30
2023-04-10T16:48:04.400Z,25.20
2023-04-10T16:50:36.324Z,25.20
2023-04-10T16:53:05.275Z,25.10
2023-04-10T16:55:33.769Z,24.90
2023-04-10T16:58:02.116Z,24.80
2023-04-10T17:00:30.931Z,24.80
2023-04-10T17:03:01.875Z,24.70
2023-04-10T17:05:36.146Z,24.60
2023-04-10T17:08:05.528Z,24.50
2023-04-10T17:10:33.968Z,24.40
2023-04-10T17:13:02.557Z,24.20
2023-04-10T17:15:30.946Z,24.10
2023-04-10T17:17:59.392Z,24.10
2023-04-10T17:20:30.917Z,24.00
2023-04-10T17:22:59.278Z,23.80
2023-04-10T17:25:27.812Z,23.80
2023-04-10T17:27:56.171Z,23.70
2023-04-10T17:30:25.114Z,23.60
2023-04-10T17:32:54.539Z,23.50
2023-04-10T17:35:23.234Z,23.40
2023-04-10T17:37:53.132Z,23.40
2023-04-10T17:40:22.045Z,23.30
2023-04-10T17:42:50.445Z,23.20
2023-04-10T17:45:19.082Z,23.10
2023-04-10T17:47:47.464Z,23.00
2023-04-10T17:50:16.199Z,23.00
2023-04-10T17:52:44.616Z,22.90
2023-04-10T17:55:20.692Z,22.80
2023-04-10T17:57:49.723Z,22.80
2023-04-10T18:00:20.654Z,22.70
2023-04-10T18:02:49.268Z,22.60
2023-04-10T18:05:17.886Z,22.50
2023-04-10T18:07:47.342Z,22.40
2023-04-10T18:10:17.329Z,22.30
2023-04-10T18:12:45.835Z,22.20
2023-04-10T18:15:15.537Z,22.20
2023-04-10T18:17:43.890Z,22.10
2023-04-10T18:20:12.759Z,22.00
2023-04-10T18:22:41.073Z,21.90
2023-04-10T18:25:10.137Z,21.80
2023-04-10T18:27:51.367Z,21.80
2023-04-10T18:30:21.063Z,21.70
2023-04-10T18:32:52.074Z,21.70
2023-04-10T18:35:20.827Z,21.60
2023-04-10T18:37:49.172Z,21.60
2023-04-10T18:40:17.798Z,21.50
2023-04-10T18:42:47.601Z,21.40
2023-04-10T18:45:16.221Z,21.30
2023-04-10T18:47:44.581Z,21.30
2023-04-10T18:50:13.114Z,21.20
2023-04-10T18:52:41.512Z,21.20
2023-04-10T18:55:10.380Z,21.10
2023-04-10T18:57:38.762Z,21.00
2023-04-10T19:00:11.537Z,21.00
2023-04-10T19:02:40.077Z,20.90
2023-04-10T19:05:10.518Z,20.90
2023-04-10T19:07:38.854Z,20.80
2023-04-10T19:10:08.372Z,20.70
2023-04-10T19:12:37.990Z,20.70
2023-04-10T19:15:09.767Z,20.60
2023-04-10T19:17:38.190Z,20.60
2023-04-10T19:20:08.310Z,20.50
2023-04-10T19:22:36.717Z,20.40
2023-04-10T19:25:05.613Z,20.40
2023-04-10T19:27:33.970Z,20.40
2023-04-10T19:30:02.304Z,20.30
2023-04-10T19:32:32.132Z,20.20
2023-04-10T19:35:00.497Z,20.20
2023-04-10T19:37:31.346Z,20.10
2023-04-10T19:39:59.695Z,20.10
2023-04-10T19:42:28.061Z,20.00
2023-04-10T19:44:56.432Z,20.00
2023-04-10T19:47:25.028Z,20.00
2023-04-10T19:49:54.847Z,19.90
2023-04-10T19:52:23.260Z,19.90
2023-04-10T19:54:51.558Z,19.80
2023-04-10T19:57:19.996Z,19.80
2023-04-10T19:59:48.395Z,19.70
2023-04-10T20:02:17.070Z,19.70
2023-04-10T20:04:48.014Z,19.70
2023-04-10T20:07:18.446Z,19.60
2023-04-10T20:09:46.809Z,19.60
2023-04-10T20:12:16.238Z,19.50
2023-04-10T20:14:45.196Z,19.50
2023-04-10T20:17:13.757Z,19.50
2023-04-10T20:19:42.208Z,19.40
2023-04-10T20:22:10.850Z,19.40
2023-04-10T20:24:40.514Z,19.40
2023-04-10T20:27:09.086Z,19.30
2023-04-10T20:29:37.416Z,19.20
2023-04-10T20:32:07.066Z,19.20
2023-04-10T20:34:36.046Z,19.20
2023-04-10T20:37:04.730Z,19.20
2023-04-10T20:39:33.669Z,19.20
2023-04-10T20:42:03.552Z,19.10
2023-04-10T20:44:31.882Z,19.10
2023-04-10T20:47:00.167Z,19.10
2023-04-10T20:49:28.615Z,19.00
2023-04-10T20:51:56.952Z,19.00
2023-04-10T20:54:27.367Z,19.00
2023-04-10T20:56:56.592Z,18.90
2023-04-10T20:59:26.543Z,18.90
2023-04-10T21:01:55.244Z,18.90
2023-04-10T21:04:23.588Z,18.80
2023-04-10T21:06:52.214Z,18.80
2023-04-10T21:09:21.005Z,18.80
2023-04-10T21:11:49.491Z,18.70
2023-04-10T21:14:18.907Z,18.70
2023-04-10T21:16:49.731Z,18.70
2023-04-10T21:19:19.078Z,18.70
2023-04-10T21:21:48.184Z,18.70
2023-04-10T21:24:18.056Z,18.60
2023-04-10T21:26:47.721Z,18.60
2023-04-10T21:29:16.300Z,18.50
2023-04-10T21:31:45.435Z,18.50
2023-04-10T21:34:15.259Z,18.40
2023-04-10T21:36:43.839Z,18.50
2023-04-10T21:39:12.449Z,18.50
2023-04-10T21:41:41.498Z,18.40
2023-04-10T21:44:10.432Z,18.30
2023-04-10T21:46:39.097Z,18.30
2023-04-10T21:49:08.533Z,18.30
2023-04-10T21:51:41.374Z,18.30
2023-04-10T21:54:09.873Z,18.20
2023-04-10T21:56:40.960Z,18.20
2023-04-10T21:59:09.543Z,18.20
2023-04-10T22:01:38.834Z,18.20
2023-04-10T22:04:08.784Z,18.10
2023-04-10T22:06:39.977Z,18.10
2023-04-10T22:09:09.802Z,18.10
2023-04-10T22:11:43.108Z,18.10
2023-04-10T22:14:17.963Z,18.00
2023-04-10T22:16:48.161Z,18.00
2023-04-10T22:19:16.752Z,18.00
2023-04-10T22:21:46.771Z,18.00
2023-04-10T22:24:15.609Z,18.00
2023-04-10T22:26:46.301Z,18.00
2023-04-10T22:29:15.247Z,17.90
2023-04-10T22:31:45.046Z,17.90
2023-04-10T22:34:13.677Z,17.90
2023-04-10T22:36:42.667Z,17.90
2023-04-10T22:39:13.410Z,17.90
2023-04-10T22:41:43.071Z,17.90
2023-04-10T22:44:11.690Z,17.80
2023-04-10T22:46:40.424Z,17.80
2023-04-10T22:49:09.131Z,17.80
2023-04-10T22:51:38.036Z,17.80
2023-04-10T22:54:07.286Z,17.80
2023-04-10T22:56:37.778Z,17.70
2023-04-10T22:59:06.967Z,17.70
2023-04-10T23:01:36.507Z,17.70
2023-04-10T23:04:05.714Z,17.70
2023-04-10T23:06:34.192Z,17.70
2023-04-10T23:09:03.387Z,17.70
2023-04-10T23:11:31.627Z,17.60
2023-04-10T23:14:02.114Z,17.60
2023-04-10T23:16:30.562Z,17.60
2023-04-10T23:18:58.874Z,17.60
2023-04-10T23:21:27.728Z,17.60
2023-04-10T23:23:56.169Z,17.60
2023-04-10T23:26:24.623Z,17.50
2023-04-10T23:28:53.149Z,17.50
2023-04-10T23:31:23.225Z,17.50
2023-04-10T23:33:51.552Z,17.50
2023-04-10T23:36:19.915Z,17.50
2023-04-10T23:38:48.310Z,17.40
2023-04-10T23:41:17.428Z,17.40
2023-04-10T23:43:46.333Z,17.30
2023-04-10T23:46:15.486Z,17.30
2023-04-10T23:48:46.039Z,17.30
2023-04-10T23:51:14.936Z,17.20
2023-04-10T23:53:44.744Z,17.20
2023-04-10T23:56:13.123Z,17.20
2023-04-10T23:58:41.542Z,17.20
